»·PEaware :: N72675 KAVX-KSAN

N72675 :: KAVX-KSAN

FLIGHT INFORMATION

Flight Status: Arrived
Operator: Privately registered:
United States
More flights under this callsign
Pilot: Shawn M. (27480)
Aircraft: CESSNA 172 SKYHAWK
(C172)
More flights by this aircraft type
Origin: KAVX Catalina
United States
Destination: KSAN San Diego Intl-Lindbergh
United States
More flights between these airports :: More routes between these airports
Route: SXC V208 OCN V23 MZB
File this flight plan on PilotEdge
Remarks: I-8 Rating
Altitude:
(Current/Filed)
5,000ft
Speed:
(Current/Filed)
115kts
Departed: 13-Jan-20 12:49 PM
Arrived: 13-Jan-20 01:51 PM
Distance/Time
Traveled:
74nm/1:01
Distance/Time
To Go:
Arrived

Flight Plot

Page will automatically refresh every two minutes.


Map Options




Map Legend


Flown Route
Filed Route
Departure Airport
Arrival Airport
Navaid (VOR, NDB)
Fix

Horizontal Profiles

Position Reports

Time Latitude Longitude Heading Altitude Ground
Speed
13-Jan-20 12:35 33.402417 -118.415189 0 1547ft 0kts
13-Jan-20 12:36 33.402417 -118.415189 0 1547ft 0kts
13-Jan-20 12:37 33.402417 -118.415189 0 1547ft 0kts
13-Jan-20 12:38 33.402417 -118.415189 0 1547ft 0kts
13-Jan-20 12:39 33.402417 -118.415189 0 1547ft 0kts
13-Jan-20 12:40 33.403751 -118.416891 283 1555ft 19kts
13-Jan-20 12:41 33.403389 -118.417815 55 1558ft 26kts
13-Jan-20 12:42 33.407132 -118.411493 50 1500ft 0kts
13-Jan-20 12:43 33.407132 -118.411493 50 1500ft 0kts
13-Jan-20 12:44 33.407132 -118.411493 50 1500ft 0kts
13-Jan-20 12:45 33.407132 -118.411493 50 1500ft 0kts
13-Jan-20 12:46 33.407132 -118.411493 50 1500ft 0kts
13-Jan-20 12:47 33.406902 -118.412568 236 1511ft 35kts
13-Jan-20 12:48 33.394406 -118.433163 236 2225ft 87kts
13-Jan-20 12:49 33.371827 -118.450296 149 2695ft 114kts
13-Jan-20 12:50 33.368614 -118.416427 81 3386ft 105kts
13-Jan-20 12:51 33.368302 -118.381813 91 4173ft 101kts
13-Jan-20 12:52 33.364848 -118.344272 93 4951ft 116kts
13-Jan-20 12:53 33.359758 -118.303434 98 4992ft 122kts
13-Jan-20 12:54 33.354580 -118.263911 99 4961ft 117kts
13-Jan-20 12:55 33.349731 -118.226536 94 5037ft 110kts
13-Jan-20 12:56 33.344797 -118.186759 96 4972ft 128kts
13-Jan-20 12:57 33.339037 -118.146646 95 4963ft 122kts
13-Jan-20 12:58 33.333929 -118.106714 95 5027ft 118kts
13-Jan-20 12:59 33.328667 -118.067348 97 4987ft 122kts
13-Jan-20 13:00 33.323520 -118.027820 95 4978ft 119kts
13-Jan-20 13:01 33.317841 -117.987977 97 4970ft 115kts
13-Jan-20 13:02 33.313244 -117.951728 97 5003ft 118kts
13-Jan-20 13:03 33.307912 -117.911301 97 5000ft 124kts
13-Jan-20 13:04 33.302414 -117.870316 97 4999ft 125kts
13-Jan-20 13:05 33.296915 -117.829384 97 5000ft 125kts
13-Jan-20 13:06 33.291352 -117.788398 97 5000ft 125kts
13-Jan-20 13:07 33.285779 -117.747433 97 5000ft 125kts
13-Jan-20 13:08 33.280232 -117.706336 97 5000ft 124kts
13-Jan-20 13:09 33.274632 -117.665375 97 5000ft 125kts
13-Jan-20 13:10 33.269042 -117.624342 97 5001ft 125kts
13-Jan-20 13:11 33.263459 -117.583530 97 5000ft 125kts
13-Jan-20 13:12 33.257835 -117.542402 97 5000ft 125kts
13-Jan-20 13:13 33.252151 -117.501174 98 5004ft 125kts
13-Jan-20 13:14 33.246490 -117.460358 98 5020ft 125kts
13-Jan-20 13:15 33.236676 -117.421467 145 5018ft 125kts
13-Jan-20 13:16 33.205138 -117.403826 160 5018ft 124kts
13-Jan-20 13:17 33.172784 -117.389297 161 5019ft 124kts
13-Jan-20 13:18 33.140020 -117.375325 162 5018ft 124kts
13-Jan-20 13:19 33.107010 -117.361485 162 5018ft 125kts
13-Jan-20 13:20 33.074198 -117.347639 163 5015ft 124kts
13-Jan-20 13:21 33.041540 -117.333921 162 5015ft 124kts
13-Jan-20 13:22 33.008884 -117.320214 163 5011ft 124kts
13-Jan-20 13:23 32.976121 -117.306467 163 5011ft 124kts
13-Jan-20 13:24 32.943459 -117.292802 163 5009ft 124kts
13-Jan-20 13:25 32.910700 -117.279071 163 5009ft 124kts
13-Jan-20 13:26 32.877899 -117.265363 163 5008ft 125kts
13-Jan-20 13:27 32.845062 -117.251619 163 5007ft 125kts
13-Jan-20 13:28 32.815394 -117.232893 109 5006ft 127kts
13-Jan-20 13:29 32.807753 -117.191829 100 5008ft 127kts
13-Jan-20 13:30 32.800446 -117.150444 101 5008ft 127kts
13-Jan-20 13:31 32.793178 -117.109005 101 5006ft 127kts
13-Jan-20 13:32 32.786107 -117.067850 100 4996ft 127kts
13-Jan-20 13:33 32.778896 -117.026528 100 4985ft 127kts
13-Jan-20 13:34 32.771791 -116.985139 100 4975ft 127kts
13-Jan-20 13:35 32.764749 -116.943979 100 4964ft 127kts
13-Jan-20 13:36 32.757731 -116.902423 100 4952ft 127kts
13-Jan-20 13:37 32.736238 -116.877895 180 4945ft 121kts
13-Jan-20 13:38 32.702380 -116.875981 180 4651ft 120kts
13-Jan-20 13:39 32.674383 -116.885299 248 3952ft 100kts
13-Jan-20 13:40 32.667206 -116.916385 282 3864ft 108kts
13-Jan-20 13:41 32.675445 -116.950921 286 3618ft 102kts
13-Jan-20 13:42 32.682652 -116.980576 286 3566ft 88kts
13-Jan-20 13:43 32.690270 -117.011824 286 2961ft 104kts
13-Jan-20 13:44 32.697974 -117.043199 286 2576ft 94kts
13-Jan-20 13:45 32.705881 -117.075677 287 2000ft 99kts
13-Jan-20 13:46 32.713263 -117.108254 288 1333ft 115kts
13-Jan-20 13:47 32.721007 -117.139364 291 958ft 84kts
13-Jan-20 13:48 32.726651 -117.161258 291 435ft 64kts
13-Jan-20 13:49 32.731788 -117.182358 290 26ft 66kts
13-Jan-20 13:50 32.734036 -117.188032 18 17ft 0kts
13-Jan-20 13:51 32.732801 -117.179710 31 20ft 13kts

Navigation Log

Ident Type
Flight plan parsing failed, navigation log unavailable